Terminal Aerodrome Forecast
Issued by NWS North Platte, NE

Current Version | Previous Version | Text Only | Print | Product List | Glossary On
Versions: 1 2 3 4 5 6 7 8 9 10 11 12 13 14 15 16
000
FTUS43 KLBF 200529
TAFVTN
TAF
KVTN 200529Z 2006/2106 35009KT 2SM -SN OVC020
     FM201000 34009KT P6SM OVC030
     FM201300 32010KT P6SM BKN035
     FM201800 32012G21KT P6SM BKN060
     FM202200 32010KT P6SM SCT070
     FM210100 31006KT P6SM FEW250=

USA.gov is the U.S. government's official web portal to all federal, state and local government web resources and services.